Time;durP1;ratioP1;P1;durP2;ratioP2;P2;SDS_P1;SDS_P2;PMS_P1;PMS_P2;Temp;Humidity;BMP_temperature;BMP_pressure;BME280_temperature;BME280_humidity;BME280_pressure;Samples;Min_cycle;Max_cycle;Signal;HPM_P1;HPM_P2
2023/02/15 00:00:22;;;;;;;18.13;16.23;;;;;;;;;;1031374;28;20105;-57
2023/02/15 00:00:56;;;;;;;18.58;16.63;;;;;;;;;;1031243;28;20026;-57
2023/02/15 00:01:27;;;;;;;19.90;17.42;;;;;;;;;;1031446;28;20026;-57
2023/02/15 00:01:58;;;;;;;20.58;16.92;;;;;;;;;;1028657;28;20101;-57
2023/02/15 00:02:29;;;;;;;19.50;17.30;;;;;;;;;;1027570;28;20022;-57
2023/02/15 00:03:00;;;;;;;19.23;17.00;;;;;;;;;;1027721;28;21035;-57
2023/02/15 00:03:31;;;;;;;19.60;16.80;;;;;;;;;;1031157;28;20335;-57
2023/02/15 00:04:02;;;;;;;20.00;17.87;;;;;;;;;;1031116;28;20340;-58
2023/02/15 00:04:48;;;;;;;18.42;16.52;;;;;;;;;;1031570;28;20697;-57
2023/02/15 00:05:19;;;;;;;19.73;17.20;;;;;;;;;;1027384;28;20023;-57
2023/02/15 00:05:50;;;;;;;19.67;16.67;;;;;;;;;;1027283;28;20023;-57
2023/02/15 00:06:21;;;;;;;19.25;16.30;;;;;;;;;;1030233;28;20304;-57
2023/02/15 00:06:52;;;;;;;19.27;15.80;;;;;;;;;;1027285;28;20480;-57
2023/02/15 00:07:23;;;;;;;21.00;17.60;;;;;;;;;;1027310;28;20128;-57
2023/02/15 00:07:54;;;;;;;18.40;16.38;;;;;;;;;;1027230;28;20282;-57
2023/02/15 00:08:25;;;;;;;18.93;16.60;;;;;;;;;;1030564;28;20026;-57
2023/02/15 00:08:56;;;;;;;17.40;15.50;;;;;;;;;;1031109;28;20256;-57
2023/02/15 00:09:27;;;;;;;19.17;17.15;;;;;;;;;;1031397;28;20030;-57
2023/02/15 00:09:58;;;;;;;17.60;15.60;;;;;;;;;;1031096;28;20094;-57
2023/02/15 00:10:29;;;;;;;18.65;16.63;;;;;;;;;;1031432;28;20903;-58
2023/02/15 00:11:12;;;;;;;19.42;17.30;;;;;;;;;;1031187;28;20834;-57
2023/02/15 00:11:49;;;;;;;18.48;16.50;;;;;;;;;;1031248;28;20037;-57
2023/02/15 00:12:20;;;;;;;17.20;14.63;;;;;;;;;;1031095;28;20030;-57
2023/02/15 00:12:51;;;;;;;18.25;16.45;;;;;;;;;;1031381;28;20036;-57
2023/02/15 00:13:22;;;;;;;17.73;15.90;;;;;;;;;;1031143;28;20172;-57
2023/02/15 00:13:53;;;;;;;17.87;15.10;;;;;;;;;;1031266;28;20359;-57
2023/02/15 00:14:24;;;;;;;18.08;16.15;;;;;;;;;;1031220;28;20337;-58
2023/02/15 00:14:55;;;;;;;18.17;16.08;;;;;;;;;;1031249;28;20072;-57
2023/02/15 00:15:26;;;;;;;18.00;16.20;;;;;;;;;;1031155;28;20025;-57
2023/02/15 00:16:01;;;;;;;17.77;15.95;;;;;;;;;;1031259;28;20030;-57
2023/02/15 00:16:33;;;;;;;18.10;16.23;;;;;;;;;;1031398;28;20033;-57
2023/02/15 00:17:04;;;;;;;19.00;16.35;;;;;;;;;;1031060;28;20105;-58
2023/02/15 00:17:34;;;;;;;18.50;15.45;;;;;;;;;;1031316;28;20033;-57
2023/02/15 00:18:05;;;;;;;17.37;15.57;;;;;;;;;;1030913;28;20593;-57
2023/02/15 00:18:37;;;;;;;20.05;16.35;;;;;;;;;;1026701;28;20270;-58
2023/02/15 00:19:08;;;;;;;20.38;17.45;;;;;;;;;;1030461;28;20026;-57
2023/02/15 00:19:39;;;;;;;17.88;15.18;;;;;;;;;;1030805;28;20480;-57
2023/02/15 00:20:11;;;;;;;18.38;16.40;;;;;;;;;;1031094;28;20097;-57
2023/02/15 00:20:41;;;;;;;18.27;16.23;;;;;;;;;;1030416;28;20037;-56
2023/02/15 00:21:12;;;;;;;18.80;16.23;;;;;;;;;;1031485;28;20061;-57
2023/02/15 00:21:44;;;;;;;17.07;15.23;;;;;;;;;;1031003;28;20296;-57
2023/02/15 00:22:15;;;;;;;17.73;15.63;;;;;;;;;;1031197;28;20583;-57
2023/02/15 00:22:46;;;;;;;20.33;17.05;;;;;;;;;;1031176;28;20626;-57
2023/02/15 00:23:17;;;;;;;19.37;16.00;;;;;;;;;;1031422;28;20189;-57
2023/02/15 00:23:47;;;;;;;19.07;15.57;;;;;;;;;;1031182;28;20296;-57
2023/02/15 00:24:19;;;;;;;18.80;15.53;;;;;;;;;;1031363;28;20768;-58
2023/02/15 00:24:50;;;;;;;16.90;15.20;;;;;;;;;;1031098;28;20261;-57
2023/02/15 00:25:21;;;;;;;19.50;16.30;;;;;;;;;;1031366;28;20750;-58
2023/02/15 00:25:52;;;;;;;18.20;15.87;;;;;;;;;;1031056;28;20365;-57
2023/02/15 00:26:23;;;;;;;18.17;15.70;;;;;;;;;;1031323;28;20391;-57
2023/02/15 00:26:54;;;;;;;16.77;14.90;;;;;;;;;;1031241;28;20336;-57
2023/02/15 00:27:25;;;;;;;17.40;15.35;;;;;;;;;;1031123;28;20132;-57
2023/02/15 00:27:56;;;;;;;15.00;13.47;;;;;;;;;;1031166;28;20654;-57
2023/02/15 00:28:27;;;;;;;17.23;14.67;;;;;;;;;;1031196;28;20257;-57
2023/02/15 00:28:58;;;;;;;16.20;14.50;;;;;;;;;;1030821;28;20252;-57
2023/02/15 00:29:29;;;;;;;16.88;15.07;;;;;;;;;;1031381;28;20109;-57
2023/02/15 00:30:00;;;;;;;17.05;14.43;;;;;;;;;;1031083;28;20504;-57
2023/02/15 00:30:31;;;;;;;17.08;14.77;;;;;;;;;;1031347;28;20092;-57
2023/02/15 00:31:09;;;;;;;15.40;13.83;;;;;;;;;;1030903;28;20038;-57
2023/02/15 00:31:40;;;;;;;15.40;13.75;;;;;;;;;;1027282;28;20268;-57
2023/02/15 00:32:11;;;;;;;16.25;14.65;;;;;;;;;;1027117;28;20015;-57
2023/02/15 00:32:42;;;;;;;16.20;13.47;;;;;;;;;;1030227;28;20791;-57
2023/02/15 00:33:13;;;;;;;16.08;14.38;;;;;;;;;;1027687;28;20302;-57
2023/02/15 00:33:44;;;;;;;16.10;13.60;;;;;;;;;;1027355;28;20065;-57
2023/02/15 00:34:17;;;;;;;16.33;14.35;;;;;;;;;;1028971;28;20922;-57
2023/02/15 00:34:48;;;;;;;15.00;13.32;;;;;;;;;;1031182;28;20666;-57
2023/02/15 00:35:19;;;;;;;15.75;13.85;;;;;;;;;;1031251;28;20469;-57
2023/02/15 00:35:56;;;;;;;16.48;13.85;;;;;;;;;;1031001;28;20081;-57
2023/02/15 00:36:27;;;;;;;15.45;13.07;;;;;;;;;;1031288;28;20819;-57
2023/02/15 00:36:58;;;;;;;14.77;12.15;;;;;;;;;;1031286;28;20798;-57
2023/02/15 00:37:29;;;;;;;16.17;13.75;;;;;;;;;;1031094;28;20010;-57
2023/02/15 00:38:00;;;;;;;14.70;13.20;;;;;;;;;;1031108;28;20097;-57
2023/02/15 00:38:31;;;;;;;14.60;13.05;;;;;;;;;;1031335;28;20089;-57
2023/02/15 00:39:04;;;;;;;14.70;13.07;;;;;;;;;;1031196;28;20093;-58
2023/02/15 00:39:35;;;;;;;13.82;12.43;;;;;;;;;;1030761;28;20102;-57
2023/02/15 00:40:06;;;;;;;15.20;12.30;;;;;;;;;;1031275;28;20018;-58
2023/02/15 00:40:37;;;;;;;13.43;12.02;;;;;;;;;;1031114;28;20068;-57
2023/02/15 00:41:09;;;;;;;15.90;12.87;;;;;;;;;;1031180;28;20050;-57
2023/02/15 00:41:40;;;;;;;14.23;12.25;;;;;;;;;;1031113;28;20279;-57
2023/02/15 00:42:11;;;;;;;14.05;12.65;;;;;;;;;;1031240;28;20014;-56
2023/02/15 00:42:42;;;;;;;12.73;11.43;;;;;;;;;;1031024;28;20022;-57
2023/02/15 00:43:13;;;;;;;11.95;10.75;;;;;;;;;;1031281;28;20750;-57
2023/02/15 00:43:44;;;;;;;14.10;12.43;;;;;;;;;;1031005;28;20014;-57
2023/02/15 00:44:15;;;;;;;14.38;12.88;;;;;;;;;;1031018;28;20029;-57
2023/02/15 00:44:46;;;;;;;14.52;12.30;;;;;;;;;;1031107;28;20397;-57
2023/02/15 00:45:17;;;;;;;15.05;12.80;;;;;;;;;;1031180;28;20486;-57
2023/02/15 00:45:48;;;;;;;13.38;11.98;;;;;;;;;;1031170;28;20049;-57
2023/02/15 00:46:19;;;;;;;14.23;12.80;;;;;;;;;;1030930;28;20015;-57
2023/02/15 00:46:50;;;;;;;13.38;11.98;;;;;;;;;;1026839;28;20018;-57
2023/02/15 00:47:21;;;;;;;13.23;11.82;;;;;;;;;;1026859;28;20023;-57
2023/02/15 00:47:52;;;;;;;13.57;12.17;;;;;;;;;;1029117;28;20410;-57
2023/02/15 00:48:24;;;;;;;15.77;12.20;;;;;;;;;;1030902;28;20245;-57
2023/02/15 00:48:55;;;;;;;12.23;10.95;;;;;;;;;;1030761;28;20439;-57
2023/02/15 00:49:25;;;;;;;13.52;12.07;;;;;;;;;;1030838;28;20390;-57
2023/02/15 00:49:56;;;;;;;12.48;11.18;;;;;;;;;;1030657;28;20018;-57
2023/02/15 00:50:27;;;;;;;13.30;11.43;;;;;;;;;;1031069;28;20356;-57
2023/02/15 00:50:59;;;;;;;12.57;11.27;;;;;;;;;;1030573;28;20360;-57
2023/02/15 00:51:30;;;;;;;13.43;11.18;;;;;;;;;;1030830;28;20245;-58
2023/02/15 00:52:01;;;;;;;12.85;11.55;;;;;;;;;;1030681;28;20046;-57
2023/02/15 00:52:32;;;;;;;12.13;10.77;;;;;;;;;;1031050;28;20010;-58
2023/02/15 00:53:03;;;;;;;11.70;10.48;;;;;;;;;;1030531;28;20430;-57
2023/02/15 00:53:34;;;;;;;13.70;12.15;;;;;;;;;;1031000;28;20014;-57
2023/02/15 00:54:05;;;;;;;13.82;11.32;;;;;;;;;;1030835;28;20505;-57
2023/02/15 00:54:38;;;;;;;11.38;10.18;;;;;;;;;;1030647;28;20033;-58
2023/02/15 00:55:09;;;;;;;11.85;10.65;;;;;;;;;;1030784;28;20023;-56
2023/02/15 00:55:40;;;;;;;11.63;10.43;;;;;;;;;;1030520;28;20406;-57
2023/02/15 00:56:11;;;;;;;12.70;11.40;;;;;;;;;;1030518;28;20096;-57
2023/02/15 00:56:42;;;;;;;13.27;11.02;;;;;;;;;;1030823;28;20082;-57
2023/02/15 00:57:13;;;;;;;11.97;10.33;;;;;;;;;;1031060;28;20022;-57
2023/02/15 00:57:44;;;;;;;11.90;10.63;;;;;;;;;;1030849;28;20612;-57
2023/02/15 00:58:15;;;;;;;11.77;10.57;;;;;;;;;;1030835;28;20377;-57
2023/02/15 00:58:46;;;;;;;11.52;10.32;;;;;;;;;;1030834;28;20625;-57
2023/02/15 00:59:17;;;;;;;11.63;10.32;;;;;;;;;;1031014;28;20018;-58
2023/02/15 00:59:48;;;;;;;11.43;10.13;;;;;;;;;;1030869;28;20026;-57
2023/02/15 01:00:19;;;;;;;11.57;10.38;;;;;;;;;;1031132;28;20268;-57
2023/02/15 01:00:50;;;;;;;10.57;9.48;;;;;;;;;;1030643;28;20441;-57
2023/02/15 01:01:21;;;;;;;12.07;10.18;;;;;;;;;;1030647;28;20026;-57
2023/02/15 01:01:52;;;;;;;11.23;10.02;;;;;;;;;;1029283;28;20097;-57
2023/02/15 01:02:23;;;;;;;12.23;10.97;;;;;;;;;;1027102;28;20029;-57
2023/02/15 01:02:54;;;;;;;11.17;9.97;;;;;;;;;;1026714;28;20266;-57
2023/02/15 01:03:25;;;;;;;11.48;10.27;;;;;;;;;;1027294;28;20338;-57
2023/02/15 01:03:56;;;;;;;10.00;9.00;;;;;;;;;;1026837;28;20018;-57
2023/02/15 01:04:27;;;;;;;10.77;9.68;;;;;;;;;;1027310;28;20269;-57
2023/02/15 01:04:58;;;;;;;11.07;9.98;;;;;;;;;;1029509;28;20057;-57
2023/02/15 01:05:29;;;;;;;11.85;9.88;;;;;;;;;;1031348;28;20022;-57
2023/02/15 01:06:00;;;;;;;11.65;10.38;;;;;;;;;;1030613;28;20094;-57
2023/02/15 01:06:31;;;;;;;11.38;10.15;;;;;;;;;;1031166;28;20077;-57
2023/02/15 01:07:03;;;;;;;10.73;9.67;;;;;;;;;;1030906;28;20022;-57
2023/02/15 01:07:34;;;;;;;10.68;9.55;;;;;;;;;;1030965;28;20270;-57
2023/02/15 01:08:05;;;;;;;11.35;10.15;;;;;;;;;;1030607;28;20026;-56
2023/02/15 01:08:36;;;;;;;11.60;10.40;;;;;;;;;;1030799;28;20022;-57
2023/02/15 01:09:07;;;;;;;12.23;9.48;;;;;;;;;;1030732;28;20016;-56
2023/02/15 01:09:38;;;;;;;10.35;9.35;;;;;;;;;;1030752;28;20021;-56
2023/02/15 01:10:09;;;;;;;12.10;9.48;;;;;;;;;;1030560;28;20026;-56
2023/02/15 01:10:40;;;;;;;11.40;10.27;;;;;;;;;;1030768;28;20022;-57
2023/02/15 01:11:12;;;;;;;11.02;9.93;;;;;;;;;;1030757;28;20018;-57
2023/02/15 01:11:43;;;;;;;11.70;9.60;;;;;;;;;;1030744;28;20478;-56
2023/02/15 01:12:15;;;;;;;10.60;9.50;;;;;;;;;;1030591;28;20385;-57
2023/02/15 01:12:45;;;;;;;10.23;9.20;;;;;;;;;;1030864;28;20341;-57
2023/02/15 01:13:17;;;;;;;10.43;9.23;;;;;;;;;;1030580;28;20076;-56
2023/02/15 01:13:49;;;;;;;9.82;8.82;;;;;;;;;;1029097;28;20304;-57
2023/02/15 01:14:20;;;;;;;10.52;9.35;;;;;;;;;;1026654;28;20090;-57
2023/02/15 01:14:51;;;;;;;9.82;8.77;;;;;;;;;;1026811;28;20047;-57
2023/02/15 01:15:23;;;;;;;10.40;9.35;;;;;;;;;;1027085;28;20463;-57
2023/02/15 01:15:54;;;;;;;10.73;9.63;;;;;;;;;;1030284;28;20082;-57
2023/02/15 01:16:26;;;;;;;9.95;8.93;;;;;;;;;;1030849;28;20019;-56
2023/02/15 01:16:57;;;;;;;10.27;9.25;;;;;;;;;;1030790;28;20011;-57
2023/02/15 01:17:28;;;;;;;10.03;9.03;;;;;;;;;;1030382;28;20649;-57
2023/02/15 01:17:59;;;;;;;9.90;8.88;;;;;;;;;;1028012;28;20327;-57
2023/02/15 01:18:30;;;;;;;11.47;10.20;;;;;;;;;;1026731;28;20019;-57
2023/02/15 01:19:02;;;;;;;9.68;8.57;;;;;;;;;;1029213;28;20325;-57
2023/02/15 01:19:33;;;;;;;10.10;9.10;;;;;;;;;;1030766;28;20097;-57
2023/02/15 01:20:04;;;;;;;9.73;8.68;;;;;;;;;;1030792;28;20030;-57
2023/02/15 01:20:38;;;;;;;9.90;8.90;;;;;;;;;;1030033;28;20088;-55
2023/02/15 01:21:11;;;;;;;10.25;8.98;;;;;;;;;;1029139;28;20650;-56
2023/02/15 01:21:42;;;;;;;10.48;9.35;;;;;;;;;;1026610;28;20409;-57
2023/02/15 01:22:13;;;;;;;9.40;8.32;;;;;;;;;;1027824;28;20466;-57
2023/02/15 01:22:44;;;;;;;9.38;8.38;;;;;;;;;;1030702;28;20447;-57
2023/02/15 01:23:15;;;;;;;9.27;8.25;;;;;;;;;;1031208;28;20656;-56
2023/02/15 01:23:46;;;;;;;9.50;8.60;;;;;;;;;;1031027;28;20672;-57
2023/02/15 01:24:17;;;;;;;10.50;8.73;;;;;;;;;;1030990;28;20026;-56
2023/02/15 01:24:50;;;;;;;9.53;8.63;;;;;;;;;;1030750;28;20019;-57
2023/02/15 01:25:22;;;;;;;9.98;8.98;;;;;;;;;;1031250;28;20262;-56
2023/02/15 01:25:53;;;;;;;10.10;8.90;;;;;;;;;;1030614;28;20062;-57
2023/02/15 01:26:24;;;;;;;8.57;7.57;;;;;;;;;;1031193;28;20018;-57
2023/02/15 01:26:55;;;;;;;10.32;8.80;;;;;;;;;;1030813;28;20030;-57
2023/02/15 01:27:25;;;;;;;9.13;8.23;;;;;;;;;;1030886;28;20465;-57
2023/02/15 01:27:56;;;;;;;10.00;8.90;;;;;;;;;;1030871;28;20050;-57
2023/02/15 01:28:27;;;;;;;10.25;9.23;;;;;;;;;;1031028;28;20296;-56
2023/02/15 01:28:58;;;;;;;9.20;8.30;;;;;;;;;;1030656;28;20590;-56
2023/02/15 01:29:29;;;;;;;9.45;8.55;;;;;;;;;;1031201;28;20018;-56
2023/02/15 01:30:00;;;;;;;9.95;8.20;;;;;;;;;;1030847;28;20026;-57
2023/02/15 01:30:32;;;;;;;10.90;8.68;;;;;;;;;;1031120;28;20021;-57
2023/02/15 01:31:09;;;;;;;9.82;8.80;;;;;;;;;;1030769;28;20026;-57
2023/02/15 01:31:40;;;;;;;10.02;8.55;;;;;;;;;;1027071;28;20023;-57
2023/02/15 01:32:11;;;;;;;10.30;8.93;;;;;;;;;;1026952;28;20103;-57
2023/02/15 01:32:43;;;;;;;9.67;8.67;;;;;;;;;;1027826;28;20018;-57
2023/02/15 01:33:17;;;;;;;9.63;8.68;;;;;;;;;;1026725;28;20286;-57
2023/02/15 01:33:48;;;;;;;9.70;8.70;;;;;;;;;;1027144;28;20019;-56
2023/02/15 01:34:19;;;;;;;9.38;8.05;;;;;;;;;;1029288;28;20050;-56
2023/02/15 01:34:50;;;;;;;10.20;9.07;;;;;;;;;;1031029;28;20036;-57
2023/02/15 01:35:21;;;;;;;9.43;8.43;;;;;;;;;;1030918;28;20336;-56
2023/02/15 01:35:58;;;;;;;9.02;8.23;;;;;;;;;;1030765;28;20811;-57
2023/02/15 01:36:30;;;;;;;10.90;8.45;;;;;;;;;;1030871;28;20045;-57
2023/02/15 01:37:01;;;;;;;10.02;9.02;;;;;;;;;;1031005;28;20477;-57
2023/02/15 01:37:32;;;;;;;9.18;8.27;;;;;;;;;;1030775;28;20029;-57
2023/02/15 01:38:03;;;;;;;10.73;8.68;;;;;;;;;;1030908;28;20026;-57
2023/02/15 01:38:35;;;;;;;9.50;8.50;;;;;;;;;;1030883;28;20092;-57
2023/02/15 01:39:07;;;;;;;10.52;9.27;;;;;;;;;;1031170;28;20929;-55
2023/02/15 01:39:38;;;;;;;10.70;9.60;;;;;;;;;;1030709;28;20574;-56
2023/02/15 01:40:13;;;;;;;9.80;8.80;;;;;;;;;;1031074;28;20473;-57
2023/02/15 01:40:44;;;;;;;9.38;8.45;;;;;;;;;;1030837;28;20296;-57
2023/02/15 01:41:25;;;;;;;10.02;8.90;;;;;;;;;;1030949;28;20033;-55
2023/02/15 01:41:56;;;;;;;9.88;8.68;;;;;;;;;;1030945;28;20037;-56
2023/02/15 01:42:28;;;;;;;10.07;9.07;;;;;;;;;;1031109;28;20041;-56
2023/02/15 01:42:59;;;;;;;10.65;9.48;;;;;;;;;;1030783;28;20108;-56
2023/02/15 01:43:43;;;;;;;10.02;8.98;;;;;;;;;;1031173;28;20018;-56
2023/02/15 01:44:40;;;;;;;9.85;8.85;;;;;;;;;;1030921;28;20633;-57
2023/02/15 01:45:19;;;;;;;10.02;9.02;;;;;;;;;;1031015;28;20026;-57
2023/02/15 01:45:50;;;;;;;10.13;8.90;;;;;;;;;;1030445;28;20023;-57
2023/02/15 01:46:27;;;;;;;9.70;8.63;;;;;;;;;;1030424;28;20022;-57
2023/02/15 01:46:58;;;;;;;9.57;8.38;;;;;;;;;;1026749;28;20767;-57
2023/02/15 01:47:41;;;;;;;9.77;8.88;;;;;;;;;;1027105;28;20875;-56
2023/02/15 01:48:21;;;;;;;10.27;8.82;;;;;;;;;;1026859;28;20493;-57
2023/02/15 01:48:54;;;;;;;9.80;8.82;;;;;;;;;;1026798;28;20541;-57
2023/02/15 01:49:26;;;;;;;9.57;8.30;;;;;;;;;;1027762;28;20026;-56
2023/02/15 01:50:20;;;;;;;9.80;8.80;;;;;;;;;;1030738;28;20350;-56
2023/02/15 01:51:01;;;;;;;10.02;9.02;;;;;;;;;;1025307;28;20043;-57
2023/02/15 01:51:33;;;;;;;10.90;9.57;;;;;;;;;;1030966;28;20465;-56
2023/02/15 01:52:04;;;;;;;9.55;8.52;;;;;;;;;;1030843;28;20120;-57
2023/02/15 01:52:37;;;;;;;9.45;8.55;;;;;;;;;;1030936;28;20095;-57
2023/02/15 01:53:27;;;;;;;10.65;9.55;;;;;;;;;;1030774;28;20100;-57
2023/02/15 01:54:02;;;;;;;9.70;8.70;;;;;;;;;;1030839;28;20018;-57
2023/02/15 01:54:35;;;;;;;9.23;8.27;;;;;;;;;;1030858;28;20031;-57
2023/02/15 01:55:07;;;;;;;9.52;8.63;;;;;;;;;;1030844;28;20486;-57
2023/02/15 01:55:40;;;;;;;9.80;8.80;;;;;;;;;;1030965;28;20426;-57
2023/02/15 01:56:19;;;;;;;9.43;8.52;;;;;;;;;;1030677;28;20023;-57
2023/02/15 01:56:50;;;;;;;;;;;;;;;;;;1031390;28;20064;-57
2023/02/15 01:57:23;;;;;;;9.57;8.53;;;;;;;;;;1030804;28;19945;-57
2023/02/15 01:57:54;;;;;;;10.07;8.68;;;;;;;;;;1030902;28;20524;-56
2023/02/15 01:58:26;;;;;;;8.90;8.00;;;;;;;;;;1030835;28;20532;-56
2023/02/15 01:58:59;;;;;;;9.60;8.52;;;;;;;;;;1026790;28;20022;-57
2023/02/15 01:59:31;;;;;;;9.88;8.88;;;;;;;;;;1026810;28;20568;-57
2023/02/15 02:00:04;;;;;;;10.02;8.68;;;;;;;;;;1026782;28;20045;-57
2023/02/15 02:00:35;;;;;;;10.63;8.60;;;;;;;;;;1026674;28;20027;-56
2023/02/15 02:01:08;;;;;;;10.30;9.30;;;;;;;;;;1027040;28;20134;-57
2023/02/15 02:01:39;;;;;;;9.45;8.55;;;;;;;;;;1030021;28;20045;-56
2023/02/15 02:02:12;;;;;;;10.13;9.13;;;;;;;;;;1028483;28;20073;-56
2023/02/15 02:02:44;;;;;;;10.13;9.07;;;;;;;;;;1030658;28;20028;-57
2023/02/15 02:03:15;;;;;;;10.10;8.60;;;;;;;;;;1030868;28;20030;-57
2023/02/15 02:03:55;;;;;;;9.93;8.93;;;;;;;;;;1030796;28;20049;-56
2023/02/15 02:04:31;;;;;;;9.57;8.68;;;;;;;;;;1031094;28;20554;-56
2023/02/15 02:05:06;;;;;;;9.60;8.60;;;;;;;;;;1030704;28;20407;-57
2023/02/15 02:05:38;;;;;;;11.15;9.32;;;;;;;;;;1030874;28;20018;-56
2023/02/15 02:06:09;;;;;;;10.63;9.07;;;;;;;;;;1030843;28;20026;-57
2023/02/15 02:06:40;;;;;;;10.73;8.98;;;;;;;;;;1030637;28;20054;-57
2023/02/15 02:07:13;;;;;;;9.32;8.38;;;;;;;;;;1030885;28;20666;-57
2023/02/15 02:07:45;;;;;;;10.65;9.07;;;;;;;;;;1030067;28;20027;-57
2023/02/15 02:08:16;;;;;;;9.70;8.43;;;;;;;;;;1030640;28;20033;-57
2023/02/15 02:08:47;;;;;;;9.73;8.73;;;;;;;;;;1030879;28;20026;-57
2023/02/15 02:09:18;;;;;;;10.02;9.02;;;;;;;;;;1030801;28;20285;-56
2023/02/15 02:09:49;;;;;;;9.80;8.82;;;;;;;;;;1030720;28;20054;-57
2023/02/15 02:10:22;;;;;;;9.88;8.88;;;;;;;;;;1030827;28;20025;-57
2023/02/15 02:10:53;;;;;;;10.30;9.20;;;;;;;;;;1030711;28;20433;-57
2023/02/15 02:11:25;;;;;;;9.67;8.67;;;;;;;;;;1030999;28;20434;-56
2023/02/15 02:11:56;;;;;;;10.93;9.82;;;;;;;;;;1026729;28;20265;-57
2023/02/15 02:12:27;;;;;;;10.25;8.95;;;;;;;;;;1027022;28;20027;-57
2023/02/15 02:13:00;;;;;;;11.05;8.95;;;;;;;;;;1026622;28;20119;-57
2023/02/15 02:13:31;;;;;;;9.20;8.20;;;;;;;;;;1030103;28;20068;-56
2023/02/15 02:14:02;;;;;;;9.63;8.63;;;;;;;;;;1027073;28;20029;-57
2023/02/15 02:14:33;;;;;;;10.07;9.07;;;;;;;;;;1027076;28;20027;-57
2023/02/15 02:15:04;;;;;;;10.80;9.45;;;;;;;;;;1026637;28;20031;-57
2023/02/15 02:15:46;;;;;;;10.45;9.35;;;;;;;;;;1029034;28;20065;-57
2023/02/15 02:16:37;;;;;;;9.93;8.93;;;;;;;;;;1030804;28;20363;-57
2023/02/15 02:17:14;;;;;;;10.43;9.32;;;;;;;;;;1028425;28;20030;-56
2023/02/15 02:17:46;;;;;;;10.68;9.20;;;;;;;;;;1030987;28;20022;-57
2023/02/15 02:18:17;;;;;;;9.63;8.65;;;;;;;;;;1030720;28;20108;-57
2023/02/15 02:19:06;;;;;;;10.55;9.35;;;;;;;;;;1030786;28;20128;-56
2023/02/15 02:19:37;;;;;;;9.70;8.45;;;;;;;;;;1030652;28;20030;-57
2023/02/15 02:20:20;;;;;;;10.37;9.30;;;;;;;;;;1030877;28;20057;-56
2023/02/15 02:21:09;;;;;;;10.05;8.75;;;;;;;;;;1030085;28;20271;-57
2023/02/15 02:21:47;;;;;;;9.45;8.48;;;;;;;;;;1030563;28;20104;-56
2023/02/15 02:22:33;;;;;;;10.93;9.27;;;;;;;;;;1030871;28;20034;-56
2023/02/15 02:23:22;;;;;;;10.65;9.65;;;;;;;;;;1030749;28;20164;-57
2023/02/15 02:24:12;;;;;;;9.90;8.90;;;;;;;;;;1027347;28;20101;-57
2023/02/15 02:24:49;;;;;;;10.18;9.07;;;;;;;;;;1030672;28;20026;-56
2023/02/15 02:25:39;;;;;;;9.63;8.07;;;;;;;;;;1030956;28;20034;-56
2023/02/15 02:26:28;;;;;;;10.15;9.05;;;;;;;;;;1030798;28;20026;-56
2023/02/15 02:27:02;;;;;;;10.85;9.07;;;;;;;;;;1030660;28;20413;-57
2023/02/15 02:27:33;;;;;;;10.02;8.40;;;;;;;;;;1030809;28;20121;-57
2023/02/15 02:28:15;;;;;;;10.30;9.18;;;;;;;;;;1030547;28;20019;-57
2023/02/15 02:28:57;;;;;;;10.15;9.10;;;;;;;;;;1030870;28;20077;-57
2023/02/15 02:29:40;;;;;;;9.95;8.95;;;;;;;;;;1030262;28;20462;-57
2023/02/15 02:30:32;;;;;;;10.00;9.00;;;;;;;;;;1030255;28;20101;-56
2023/02/15 02:31:21;;;;;;;10.70;9.20;;;;;;;;;;1030175;28;20370;-57
2023/02/15 02:32:11;;;;;;;11.15;8.95;;;;;;;;;;1027719;28;20030;-56
2023/02/15 02:32:42;;;;;;;10.57;9.13;;;;;;;;;;1026939;28;20026;-57
2023/02/15 02:33:33;;;;;;;9.60;8.47;;;;;;;;;;1026585;28;20110;-57
2023/02/15 02:34:19;;;;;;;9.75;8.75;;;;;;;;;;1026489;28;20345;-56
2023/02/15 02:35:11;;;;;;;10.48;9.18;;;;;;;;;;1026624;28;20042;-57
2023/02/15 02:35:54;;;;;;;10.13;8.77;;;;;;;;;;1026550;28;20038;-56
2023/02/15 02:36:32;;;;;;;9.25;8.32;;;;;;;;;;1029650;28;20026;-57
2023/02/15 02:37:13;;;;;;;9.38;8.43;;;;;;;;;;1030782;28;20034;-57
2023/02/15 02:37:44;;;;;;;10.68;9.13;;;;;;;;;;1027910;28;20035;-56
2023/02/15 02:38:39;;;;;;;10.10;9.00;;;;;;;;;;1030641;28;20073;-56
2023/02/15 02:39:13;;;;;;;10.48;9.48;;;;;;;;;;1024966;28;20337;-57
2023/02/15 02:39:49;;;;;;;10.10;9.00;;;;;;;;;;1029051;28;20022;-57
2023/02/15 02:40:46;;;;;;;9.80;8.80;;;;;;;;;;1030790;28;20034;-57
2023/02/15 02:41:41;;;;;;;10.02;8.98;;;;;;;;;;1018131;29;20051;-57
2023/02/15 02:42:41;;;;;;;9.90;8.38;;;;;;;;;;1009439;29;20084;-56
2023/02/15 02:43:18;;;;;;;9.30;8.40;;;;;;;;;;1017235;29;20348;-57
2023/02/15 02:43:49;;;;;;;9.70;8.70;;;;;;;;;;1030560;28;20014;-56
2023/02/15 02:44:25;;;;;;;9.97;8.97;;;;;;;;;;1026789;28;20045;-56
2023/02/15 02:45:10;;;;;;;10.20;8.65;;;;;;;;;;1029661;28;20753;-57
2023/02/15 02:45:45;;;;;;;10.27;9.18;;;;;;;;;;1030534;28;20026;-56
2023/02/15 02:46:28;;;;;;;9.68;8.68;;;;;;;;;;1028094;28;20027;-57
2023/02/15 02:47:02;;;;;;;10.20;9.20;;;;;;;;;;1030402;28;20026;-57
2023/02/15 02:47:37;;;;;;;10.77;9.57;;;;;;;;;;1030973;28;20054;-57
2023/02/15 02:48:10;;;;;;;10.13;8.90;;;;;;;;;;1028188;28;20050;-56
2023/02/15 02:48:41;;;;;;;9.95;8.77;;;;;;;;;;1030196;28;20034;-57
2023/02/15 02:49:12;;;;;;;9.75;8.75;;;;;;;;;;1030862;28;20034;-57
2023/02/15 02:49:44;;;;;;;9.45;8.43;;;;;;;;;;1027927;28;20027;-57
2023/02/15 02:50:17;;;;;;;10.40;9.32;;;;;;;;;;1030667;28;20030;-57
2023/02/15 02:50:48;;;;;;;9.90;8.90;;;;;;;;;;1030082;28;20116;-57
2023/02/15 02:51:22;;;;;;;9.90;8.90;;;;;;;;;;1028210;28;20027;-57
2023/02/15 02:51:58;;;;;;;11.20;10.00;;;;;;;;;;1026732;28;20026;-56
2023/02/15 02:52:37;;;;;;;10.13;9.07;;;;;;;;;;1026826;28;20077;-57
2023/02/15 02:53:08;;;;;;;;;;;;;;;;;;1026867;28;20018;-57
2023/02/15 02:53:39;;;;;;;10.80;9.70;;;;;;;;;;1026930;28;19945;-57
2023/02/15 02:54:10;;;;;;;10.50;9.15;;;;;;;;;;1026604;28;20109;-57
2023/02/15 02:54:41;;;;;;;10.35;8.95;;;;;;;;;;1026491;28;20034;-57
2023/02/15 02:55:21;;;;;;;11.15;10.02;;;;;;;;;;1030247;28;20077;-56
2023/02/15 02:55:55;;;;;;;10.43;9.32;;;;;;;;;;1030694;28;20496;-56
2023/02/15 02:56:31;;;;;;;9.95;8.85;;;;;;;;;;1027635;28;20058;-57
2023/02/15 02:57:04;;;;;;;10.05;9.02;;;;;;;;;;1026614;28;20078;-57
2023/02/15 02:57:37;;;;;;;12.13;10.35;;;;;;;;;;1026623;28;20463;-57
2023/02/15 02:58:20;;;;;;;9.82;8.75;;;;;;;;;;1026522;28;20027;-57
2023/02/15 02:59:02;;;;;;;11.55;9.82;;;;;;;;;;1026694;28;20054;-56
2023/02/15 02:59:36;;;;;;;11.25;9.95;;;;;;;;;;1026576;28;20044;-56
2023/02/15 03:00:09;;;;;;;10.98;9.70;;;;;;;;;;1028951;28;20015;-56
2023/02/15 03:00:42;;;;;;;12.65;10.65;;;;;;;;;;1030377;28;20088;-56
2023/02/15 03:01:16;;;;;;;11.32;10.13;;;;;;;;;;1030684;28;20076;-57
2023/02/15 03:01:56;;;;;;;10.43;9.35;;;;;;;;;;1028521;28;20492;-57
2023/02/15 03:02:30;;;;;;;11.57;10.38;;;;;;;;;;1027952;28;20023;-57
2023/02/15 03:03:05;;;;;;;11.73;10.02;;;;;;;;;;1026414;28;20048;-57
2023/02/15 03:03:39;;;;;;;11.43;10.30;;;;;;;;;;1029223;28;20455;-57
2023/02/15 03:04:12;;;;;;;10.48;9.38;;;;;;;;;;1030756;28;20109;-56
2023/02/15 03:04:45;;;;;;;11.82;10.55;;;;;;;;;;1029665;28;20851;-57
2023/02/15 03:05:18;;;;;;;11.35;10.23;;;;;;;;;;1026559;28;20034;-57
2023/02/15 03:05:51;;;;;;;12.85;10.02;;;;;;;;;;1029185;28;20458;-56
2023/02/15 03:06:27;;;;;;;12.25;11.05;;;;;;;;;;1030237;28;20061;-57
2023/02/15 03:07:01;;;;;;;10.85;9.68;;;;;;;;;;1029010;28;20114;-57
2023/02/15 03:07:33;;;;;;;12.40;10.00;;;;;;;;;;1030873;28;20072;-56
2023/02/15 03:08:09;;;;;;;11.45;10.18;;;;;;;;;;1029962;28;20038;-57
2023/02/15 03:08:45;;;;;;;11.32;10.07;;;;;;;;;;1029120;28;20033;-57
2023/02/15 03:09:18;;;;;;;11.55;10.35;;;;;;;;;;1030706;28;20639;-57
2023/02/15 03:09:51;;;;;;;11.98;10.32;;;;;;;;;;1029704;28;20026;-56
2023/02/15 03:10:23;;;;;;;13.07;10.35;;;;;;;;;;1029316;28;20034;-56
2023/02/15 03:10:56;;;;;;;11.90;10.68;;;;;;;;;;1030520;28;20445;-57
2023/02/15 03:11:27;;;;;;;12.18;10.45;;;;;;;;;;1030434;28;20039;-56
2023/02/15 03:11:58;;;;;;;12.65;11.27;;;;;;;;;;1028237;28;20030;-57
2023/02/15 03:12:34;;;;;;;10.95;9.55;;;;;;;;;;1030172;28;20026;-56
2023/02/15 03:13:05;;;;;;;11.80;10.60;;;;;;;;;;1026479;28;20121;-57
2023/02/15 03:13:36;;;;;;;11.85;10.25;;;;;;;;;;1027081;28;20180;-57
2023/02/15 03:14:07;;;;;;;11.48;9.93;;;;;;;;;;1026501;28;20042;-56
2023/02/15 03:14:39;;;;;;;11.80;10.48;;;;;;;;;;1026793;28;20197;-57
2023/02/15 03:15:13;;;;;;;11.05;9.95;;;;;;;;;;1026595;28;20054;-56
2023/02/15 03:16:35;;;;;;;12.23;10.13;;;;;;;;;;1030672;28;20061;-56
2023/02/15 03:17:07;;;;;;;10.82;9.75;;;;;;;;;;1030497;28;20026;-56
2023/02/15 03:17:42;;;;;;;11.70;10.50;;;;;;;;;;1027835;28;20100;-57
2023/02/15 03:18:13;;;;;;;11.65;10.23;;;;;;;;;;1026660;28;20059;-57
2023/02/15 03:18:52;;;;;;;11.88;10.68;;;;;;;;;;1026587;28;20011;-56
2023/02/15 03:19:25;;;;;;;11.38;10.27;;;;;;;;;;1029333;28;20022;-56
2023/02/15 03:19:58;;;;;;;11.25;9.90;;;;;;;;;;1030574;28;20057;-55